Time;durP1;ratioP1;P1;durP2;ratioP2;P2;SDS_P1;SDS_P2;PMS_P1;PMS_P2;Temp;Humidity;BMP_temperature;BMP_pressure;BME280_temperature;BME280_humidity;BME280_pressure;Samples;Min_cycle;Max_cycle;Signal;HPM_P1;HPM_P2
2022/07/31 00:00:53;;;;;;;4.50;1.20;;;;;;;15.48;100.00;100078.07;106184;1271;24182;-59
2022/07/31 00:03:24;;;;;;;6.00;1.10;;;;;;;15.48;100.00;100079.80;106218;1270;24396;-57
2022/07/31 00:05:56;;;;;;;6.20;1.30;;;;;;;15.48;100.00;100079.95;106147;1271;25420;-58
2022/07/31 00:08:28;;;;;;;3.30;1.10;;;;;;;15.49;100.00;100082.71;106206;1270;24107;-57
2022/07/31 00:11:00;;;;;;;4.30;1.40;;;;;;;15.49;100.00;100083.42;106155;1270;22612;-57
2022/07/31 00:13:31;;;;;;;5.50;1.30;;;;;;;15.50;100.00;100085.80;106253;1270;26514;-59
2022/07/31 00:16:03;;;;;;;3.20;1.10;;;;;;;15.50;100.00;100092.54;106180;1270;25470;-57
2022/07/31 00:18:35;;;;;;;4.60;1.20;;;;;;;15.50;100.00;100090.24;106111;1271;23008;-56
2022/07/31 00:21:09;;;;;;;3.90;1.30;;;;;;;15.49;100.00;100095.66;106249;1270;24199;-58
2022/07/31 00:23:41;;;;;;;6.00;1.70;;;;;;;15.48;100.00;100099.14;106302;1271;22545;-58
2022/07/31 00:26:12;;;;;;;4.30;1.40;;;;;;;15.47;100.00;100101.91;106158;1270;22544;-58
2022/07/31 00:28:44;;;;;;;4.30;1.20;;;;;;;15.46;100.00;100094.34;106281;1270;23156;-57
2022/07/31 00:31:17;;;;;;;5.30;1.20;;;;;;;15.45;100.00;100093.63;106188;1270;22641;-59
2022/07/31 00:33:48;;;;;;;4.40;1.10;;;;;;;15.44;100.00;100093.63;106279;1270;23951;-58
2022/07/31 00:36:20;;;;;;;4.50;1.20;;;;;;;15.43;100.00;100095.14;106175;1271;22525;-59
2022/07/31 00:38:51;;;;;;;7.50;1.30;;;;;;;15.41;100.00;100091.45;106309;1270;25704;-58
2022/07/31 00:41:23;;;;;;;4.20;1.10;;;;;;;15.40;100.00;100088.14;106254;1270;24422;-58
2022/07/31 00:43:55;;;;;;;3.30;1.20;;;;;;;15.40;100.00;100093.56;106115;1271;22564;-58
2022/07/31 00:46:27;;;;;;;4.10;1.00;;;;;;;15.38;100.00;100092.23;106251;1270;22531;-58
2022/07/31 00:48:58;;;;;;;5.30;1.20;;;;;;;15.38;100.00;100092.45;106213;1270;26047;-59
2022/07/31 00:51:30;;;;;;;3.00;1.10;;;;;;;15.37;100.00;100098.72;106332;1271;25417;-59
2022/07/31 00:54:03;;;;;;;5.20;1.20;;;;;;;15.37;100.00;100100.83;106220;1271;22529;-58
2022/07/31 00:56:35;;;;;;;3.90;1.20;;;;;;;15.36;100.00;100102.67;106283;1270;24221;-58
2022/07/31 00:59:07;;;;;;;4.00;1.20;;;;;;;15.36;100.00;100102.31;106215;1270;24245;-58
2022/07/31 01:01:40;;;;;;;5.80;1.10;;;;;;;15.35;100.00;100093.83;106274;1270;24082;-57
2022/07/31 01:04:17;;;;;;;5.20;1.00;;;;;;;15.34;100.00;100091.69;106251;1271;25350;-58
2022/07/31 01:06:49;;;;;;;4.50;1.10;;;;;;;15.33;100.00;100099.91;106036;1271;22556;-58
2022/07/31 01:09:20;;;;;;;3.80;1.00;;;;;;;15.33;100.00;100101.70;105892;1270;510237;-57
2022/07/31 01:12:00;;;;;;;3.10;0.90;;;;;;;15.32;100.00;100102.63;106525;1271;22545;-58
2022/07/31 01:14:36;;;;;;;3.20;1.00;;;;;;;15.32;100.00;100102.73;106404;1270;25424;-58
2022/07/31 01:17:10;;;;;;;2.80;0.90;;;;;;;15.33;100.00;100101.51;106376;1271;22544;-58
2022/07/31 01:19:44;;;;;;;4.80;1.00;;;;;;;15.31;100.00;100099.36;106298;1270;25290;-58
2022/07/31 01:22:46;;;;;;;4.00;1.00;;;;;;;15.31;100.00;100097.38;106347;1270;24338;-59
2022/07/31 01:25:33;;;;;;;4.10;0.90;;;;;;;15.31;100.00;100094.36;106357;1271;22554;-59
2022/07/31 01:28:08;;;;;;;2.60;0.90;;;;;;;15.31;100.00;100097.17;106263;1269;25497;-58
2022/07/31 01:30:50;;;;;;;3.90;1.20;;;;;;;15.30;100.00;100099.42;106263;1270;27579;-59
2022/07/31 01:33:33;;;;;;;2.70;0.90;;;;;;;15.30;100.00;100098.91;106225;1271;22700;-58
2022/07/31 01:36:13;;;;;;;3.30;0.90;;;;;;;15.29;100.00;100099.83;106250;1271;22687;-58
2022/07/31 01:38:50;;;;;;;2.70;0.80;;;;;;;15.29;100.00;100097.41;106448;1271;22632;-59
2022/07/31 01:41:31;;;;;;;2.90;1.00;;;;;;;15.29;100.00;100100.04;106344;1271;22582;-59
2022/07/31 01:44:06;;;;;;;4.30;0.90;;;;;;;15.29;100.00;100098.77;106410;1270;22554;-59
2022/07/31 01:46:39;;;;;;;5.00;1.20;;;;;;;15.29;100.00;100097.22;106385;1271;22767;-58
2022/07/31 01:49:12;;;;;;;3.50;1.00;;;;;;;15.27;100.00;100099.98;106304;1271;22627;-59
2022/07/31 01:51:46;;;;;;;4.70;1.20;;;;;;;15.27;100.00;100098.05;106231;1271;22487;-61
2022/07/31 01:54:21;;;;;;;6.50;1.00;;;;;;;15.27;100.00;100099.79;106291;1271;22550;-60
2022/07/31 01:56:58;;;;;;;4.40;1.00;;;;;;;15.25;100.00;100100.45;106139;1270;24672;-59
2022/07/31 01:59:32;;;;;;;5.80;1.10;;;;;;;15.25;100.00;100102.95;106228;1270;22551;-59
2022/07/31 02:02:05;;;;;;;4.80;1.40;;;;;;;15.24;100.00;100101.88;106303;1271;22610;-58
2022/07/31 02:04:37;;;;;;;3.80;1.10;;;;;;;15.23;100.00;100101.77;106409;1271;22529;-58
2022/07/31 02:07:10;;;;;;;6.00;1.10;;;;;;;15.23;100.00;100104.39;106364;1271;24412;-57
2022/07/31 02:09:42;;;;;;;4.90;1.20;;;;;;;15.22;100.00;100104.45;106696;1260;25348;-68
2022/07/31 02:12:15;;;;;;;6.50;2.10;;;;;;;15.22;100.00;100102.86;105748;1271;22622;-68
2022/07/31 02:14:49;;;;;;;7.40;1.30;;;;;;;15.21;100.00;100099.89;105902;1272;24309;-69
2022/07/31 02:17:21;;;;;;;5.00;1.30;;;;;;;15.20;100.00;100095.40;105822;1272;22551;-67
2022/07/31 02:19:54;;;;;;;4.60;1.10;;;;;;;15.19;100.00;100094.42;105964;1271;22533;-66
2022/07/31 02:22:26;;;;;;;4.40;1.40;;;;;;;15.18;100.00;100098.02;106081;1272;22550;-67
2022/07/31 02:24:58;;;;;;;5.20;1.30;;;;;;;15.18;100.00;100099.34;105918;1272;25537;-65
2022/07/31 02:27:31;;;;;;;4.00;1.30;;;;;;;15.16;100.00;100093.89;105969;1271;23971;-65
2022/07/31 02:30:05;;;;;;;3.90;1.30;;;;;;;15.16;100.00;100091.38;105885;1272;26754;-65
2022/07/31 02:32:38;;;;;;;4.00;1.10;;;;;;;15.15;100.00;100091.88;105678;1272;25321;-69
2022/07/31 02:35:12;;;;;;;5.10;1.30;;;;;;;15.15;100.00;100095.66;105788;1272;22714;-65
2022/07/31 02:37:45;;;;;;;5.20;1.30;;;;;;;15.14;100.00;100091.48;105899;1272;24286;-64
2022/07/31 02:40:18;;;;;;;4.80;1.40;;;;;;;15.13;100.00;100094.29;105927;1272;22548;-64
2022/07/31 02:42:51;;;;;;;4.70;1.40;;;;;;;15.12;100.00;100092.25;105851;1272;22572;-65
2022/07/31 02:45:24;;;;;;;3.90;1.20;;;;;;;15.12;100.00;100096.09;105732;1272;22595;-65
2022/07/31 02:47:56;;;;;;;5.70;1.40;;;;;;;15.11;100.00;100094.04;105770;1271;24249;-63
2022/07/31 02:50:28;;;;;;;4.30;1.10;;;;;;;15.11;100.00;100093.98;106059;1271;22814;-64
2022/07/31 02:53:00;;;;;;;5.50;1.50;;;;;;;15.10;100.00;100100.90;105962;1272;22670;-64
2022/07/31 02:55:33;;;;;;;4.20;1.30;;;;;;;15.10;100.00;100098.80;105919;1272;23353;-64
2022/07/31 02:58:05;;;;;;;4.30;1.20;;;;;;;15.10;100.00;100099.77;106092;1272;24448;-64
2022/07/31 03:00:36;;;;;;;4.70;1.30;;;;;;;15.09;100.00;100099.41;105817;1271;24268;-65
2022/07/31 03:03:07;;;;;;;7.20;1.40;;;;;;;15.08;100.00;100095.77;105757;1271;22557;-65
2022/07/31 03:05:39;;;;;;;3.50;1.20;;;;;;;15.07;100.00;100094.40;105850;1272;24352;-65
2022/07/31 03:08:11;;;;;;;6.30;1.30;;;;;;;15.07;100.00;100099.16;105937;1272;24246;-64
2022/07/31 03:10:43;;;;;;;5.70;1.40;;;;;;;15.07;100.00;100101.81;105895;1272;22566;-64
2022/07/31 03:13:16;;;;;;;6.20;1.60;;;;;;;15.06;100.00;100105.65;105715;1271;23093;-64
2022/07/31 03:15:48;;;;;;;5.00;1.40;;;;;;;15.06;100.00;100107.54;105979;1271;22556;-65
2022/07/31 03:18:21;;;;;;;3.90;1.40;;;;;;;15.05;100.00;100102.93;105724;1272;22532;-64
2022/07/31 03:20:53;;;;;;;4.00;1.50;;;;;;;15.04;100.00;100105.38;105744;1272;22480;-65
2022/07/31 03:23:27;;;;;;;6.40;1.40;;;;;;;15.04;100.00;100106.89;106213;1272;23026;-65
2022/07/31 03:25:59;;;;;;;6.70;1.20;;;;;;;15.03;100.00;100106.37;105922;1272;22633;-66
2022/07/31 03:28:31;;;;;;;5.30;1.40;;;;;;;15.03;100.00;100104.37;105952;1272;22877;-64
2022/07/31 03:31:03;;;;;;;4.10;1.60;;;;;;;15.03;100.00;100100.89;105859;1272;22568;-64
2022/07/31 03:33:35;;;;;;;3.70;1.30;;;;;;;15.03;100.00;100102.94;105774;1272;24316;-65
2022/07/31 03:36:08;;;;;;;7.00;2.00;;;;;;;15.03;100.00;100104.38;105807;1272;25440;-65
2022/07/31 03:38:40;;;;;;;4.80;1.60;;;;;;;15.03;100.00;100105.90;105850;1272;22803;-64
2022/07/31 03:41:11;;;;;;;7.70;1.60;;;;;;;15.02;100.00;100110.50;105803;1272;23058;-67
2022/07/31 03:43:46;;;;;;;6.10;1.70;;;;;;;15.02;100.00;100110.86;105773;1271;22553;-64
2022/07/31 03:46:19;;;;;;;6.60;1.90;;;;;;;15.01;100.00;100108.41;105687;1272;22550;-64
2022/07/31 03:48:51;;;;;;;7.10;2.20;;;;;;;15.02;100.00;100111.79;105708;1272;22553;-64
2022/07/31 03:51:23;;;;;;;8.50;2.20;;;;;;;15.02;100.00;100102.55;105744;1271;22521;-65
2022/07/31 03:53:55;;;;;;;7.80;2.30;;;;;;;15.02;100.00;100108.10;105743;1272;22704;-65
2022/07/31 03:56:27;;;;;;;10.30;3.10;;;;;;;15.03;100.00;100107.59;105645;1272;25434;-65
2022/07/31 03:58:59;;;;;;;8.00;2.60;;;;;;;15.04;100.00;100103.20;105704;1271;22551;-64
2022/07/31 04:01:33;;;;;;;7.50;2.50;;;;;;;15.04;100.00;100101.45;105887;1272;22639;-64
2022/07/31 04:04:05;;;;;;;7.50;2.40;;;;;;;15.05;100.00;100097.52;105870;1272;24309;-65
2022/07/31 04:06:37;;;;;;;7.20;2.60;;;;;;;15.06;100.00;100098.59;105640;1272;22788;-65
2022/07/31 04:09:09;;;;;;;9.30;2.50;;;;;;;15.07;100.00;100097.73;105779;1272;23097;-64
2022/07/31 04:11:40;;;;;;;10.00;2.30;;;;;;;15.07;100.00;100099.88;105947;1272;22551;-67
2022/07/31 04:14:11;;;;;;;6.80;2.50;;;;;;;15.07;100.00;100095.22;105770;1272;25402;-65
2022/07/31 04:16:43;;;;;;;10.00;2.70;;;;;;;15.08;100.00;100092.34;105619;1272;25306;-64
2022/07/31 04:19:15;;;;;;;10.60;2.80;;;;;;;15.09;100.00;100090.88;105863;1272;22550;-64
2022/07/31 04:21:49;;;;;;;9.80;2.10;;;;;;;15.10;100.00;100089.71;106018;1272;25740;-67
2022/07/31 04:24:20;;;;;;;10.10;2.40;;;;;;;15.11;100.00;100095.58;105748;1272;23224;-65
2022/07/31 04:26:52;;;;;;;6.90;2.20;;;;;;;15.12;100.00;100095.77;105752;1272;22615;-64
2022/07/31 04:29:27;;;;;;;9.60;2.90;;;;;;;15.12;100.00;100096.80;106294;1272;24262;-63
2022/07/31 04:31:59;;;;;;;9.10;2.60;;;;;;;15.12;100.00;100102.13;105637;1272;25333;-67
2022/07/31 04:34:30;;;;;;;13.70;2.80;;;;;;;15.12;100.00;100101.45;105861;1272;22554;-66
2022/07/31 04:37:02;;;;;;;7.40;2.60;;;;;;;15.12;100.00;100103.19;105854;1271;24235;-64
2022/07/31 04:39:33;;;;;;;9.50;2.60;;;;;;;15.13;100.00;100097.35;105666;1271;25350;-64
2022/07/31 04:42:06;;;;;;;10.80;3.10;;;;;;;15.14;100.00;100098.28;105692;1272;25325;-64
2022/07/31 04:44:38;;;;;;;10.40;2.60;;;;;;;15.14;100.00;100097.05;105855;1272;22565;-65
2022/07/31 04:47:09;;;;;;;10.50;3.30;;;;;;;15.15;100.00;100096.73;105698;1272;22648;-65
2022/07/31 04:49:41;;;;;;;9.10;2.30;;;;;;;15.15;100.00;100094.84;105747;1272;24330;-66
2022/07/31 04:52:12;;;;;;;10.00;2.90;;;;;;;15.16;100.00;100097.56;105802;1272;26299;-64
2022/07/31 04:54:44;;;;;;;12.40;3.20;;;;;;;15.16;100.00;100098.90;105773;1272;25905;-65
2022/07/31 04:57:16;;;;;;;11.00;3.10;;;;;;;15.16;100.00;100098.27;105699;1272;23223;-65
2022/07/31 04:59:48;;;;;;;7.50;2.80;;;;;;;15.15;100.00;100096.94;105667;1272;22531;-65
2022/07/31 05:02:21;;;;;;;9.20;3.60;;;;;;;15.15;100.00;100095.92;105678;1271;22560;-64
2022/07/31 05:04:53;;;;;;;12.30;3.80;;;;;;;15.15;100.00;100096.59;105819;1272;22621;-64
2022/07/31 05:07:25;;;;;;;14.40;4.10;;;;;;;15.15;100.00;100095.66;105772;1272;25445;-64
2022/07/31 05:09:58;;;;;;;15.20;4.60;;;;;;;15.16;100.00;100088.46;105767;1271;22803;-64
2022/07/31 05:12:29;;;;;;;11.30;3.90;;;;;;;15.17;100.00;100086.83;105743;1272;23795;-65
2022/07/31 05:15:02;;;;;;;13.10;4.80;;;;;;;15.18;100.00;100089.48;105806;1272;22612;-64
2022/07/31 05:17:34;;;;;;;9.20;4.10;;;;;;;15.20;100.00;100088.34;105911;1272;24440;-64
2022/07/31 05:20:08;;;;;;;11.00;4.80;;;;;;;15.20;100.00;100090.80;105829;1272;23601;-64
2022/07/31 05:22:39;;;;;;;9.90;4.70;;;;;;;15.21;100.00;100092.73;105764;1272;22743;-64
2022/07/31 05:25:11;;;;;;;12.50;4.90;;;;;;;15.23;100.00;100090.54;105770;1272;25536;-64
2022/07/31 05:27:43;;;;;;;12.00;4.90;;;;;;;15.23;100.00;100094.88;105751;1272;25383;-65
2022/07/31 05:30:15;;;;;;;12.80;4.60;;;;;;;15.24;100.00;100098.56;105813;1272;22585;-65
2022/07/31 05:32:47;;;;;;;11.40;4.50;;;;;;;15.24;100.00;100098.87;105737;1272;22640;-64
2022/07/31 05:35:18;;;;;;;10.00;3.90;;;;;;;15.24;100.00;100099.28;105636;1271;22550;-64
2022/07/31 05:37:50;;;;;;;11.60;4.40;;;;;;;15.23;100.00;100095.85;105748;1272;22687;-65
2022/07/31 05:40:22;;;;;;;13.90;4.90;;;;;;;15.22;100.00;100094.33;105715;1272;24211;-64
2022/07/31 05:42:55;;;;;;;15.10;5.60;;;;;;;15.23;100.00;100093.14;105823;1272;23094;-64
2022/07/31 05:45:26;;;;;;;13.30;5.20;;;;;;;15.23;100.00;100093.03;105855;1272;24333;-64
2022/07/31 05:48:00;;;;;;;15.70;5.50;;;;;;;15.24;100.00;100095.03;106047;1272;24246;-64
2022/07/31 05:50:33;;;;;;;14.20;5.60;;;;;;;15.25;100.00;100093.19;105741;1272;22572;-65
2022/07/31 05:53:04;;;;;;;12.80;4.50;;;;;;;15.26;100.00;100096.05;105822;1273;23336;-64
2022/07/31 05:55:36;;;;;;;10.60;4.50;;;;;;;15.28;100.00;100097.58;105889;1272;22648;-64
2022/07/31 05:58:08;;;;;;;14.20;4.60;;;;;;;15.30;100.00;100097.98;106079;1272;22709;-64
2022/07/31 06:00:40;;;;;;;15.80;5.60;;;;;;;15.33;100.00;100097.56;105872;1272;22700;-64
2022/07/31 06:03:12;;;;;;;13.70;5.50;;;;;;;15.35;100.00;100101.09;105874;1272;25207;-65
2022/07/31 06:05:44;;;;;;;13.50;4.70;;;;;;;15.36;100.00;100098.13;105863;1271;22808;-67
2022/07/31 06:08:15;;;;;;;10.40;4.20;;;;;;;15.38;100.00;100095.00;105807;1272;22772;-65
2022/07/31 06:10:49;;;;;;;11.70;4.10;;;;;;;15.40;100.00;100096.94;105820;1272;24264;-64
2022/07/31 06:13:23;;;;;;;14.00;4.00;;;;;;;15.41;100.00;100102.27;105801;1272;22578;-66
2022/07/31 06:15:55;;;;;;;15.60;3.40;;;;;;;15.41;100.00;100099.33;105862;1272;24232;-65
2022/07/31 06:18:27;;;;;;;14.60;4.50;;;;;;;15.41;100.00;100105.41;106080;1272;24765;-66
2022/07/31 06:20:59;;;;;;;13.00;3.80;;;;;;;15.41;100.00;100103.83;105880;1272;22554;-67
2022/07/31 06:23:30;;;;;;;11.00;3.70;;;;;;;15.42;100.00;100109.27;105889;1272;25421;-64
2022/07/31 06:26:02;;;;;;;9.10;3.80;;;;;;;15.43;100.00;100108.20;105965;1272;22620;-64
2022/07/31 06:28:34;;;;;;;11.50;3.90;;;;;;;15.43;100.00;100115.33;105960;1272;25475;-64
2022/07/31 06:31:06;;;;;;;10.60;3.80;;;;;;;15.44;100.00;100113.89;105801;1272;22513;-64
2022/07/31 06:33:38;;;;;;;11.50;4.00;;;;;;;15.46;100.00;100115.41;105854;1272;24990;-65
2022/07/31 06:36:10;;;;;;;12.00;3.70;;;;;;;15.48;100.00;100114.09;105801;1272;22544;-65
2022/07/31 06:38:42;;;;;;;11.00;3.90;;;;;;;15.49;100.00;100115.35;105981;1272;27271;-65
2022/07/31 06:41:43;;;;;;;15.90;3.70;;;;;;;15.50;100.00;100111.01;105887;1272;24057;-68
2022/07/31 06:44:06;;;;;;;11.70;3.60;;;;;;;15.53;100.00;100106.29;105739;1272;24478;-65
2022/07/31 06:46:38;;;;;;;12.60;3.90;;;;;;;15.56;100.00;100105.30;105842;1272;24252;-66
2022/07/31 06:49:09;;;;;;;10.10;3.30;;;;;;;15.59;100.00;100103.96;105854;1272;25324;-64
2022/07/31 06:51:41;;;;;;;9.90;3.70;;;;;;;15.63;100.00;100104.30;105884;1272;22657;-64
2022/07/31 06:54:13;;;;;;;12.50;4.00;;;;;;;15.67;100.00;100100.57;105919;1272;24436;-64
2022/07/31 06:56:45;;;;;;;9.10;3.70;;;;;;;15.72;100.00;100100.45;105776;1272;22553;-65
2022/07/31 06:59:16;;;;;;;8.00;3.40;;;;;;;15.76;100.00;100097.70;105858;1272;25438;-65
2022/07/31 07:01:48;;;;;;;11.50;3.50;;;;;;;15.79;100.00;100104.44;105816;1272;24407;-65
2022/07/31 07:04:20;;;;;;;15.30;3.10;;;;;;;15.81;100.00;100105.61;105946;1272;24388;-66
2022/07/31 07:06:53;;;;;;;7.70;3.20;;;;;;;15.81;100.00;100104.75;105642;1272;24432;-65
2022/07/31 07:09:25;;;;;;;10.10;3.00;;;;;;;15.82;100.00;100106.08;105644;1272;22646;-65
2022/07/31 07:11:57;;;;;;;9.30;3.40;;;;;;;15.83;100.00;100107.45;105647;1272;24320;-65
2022/07/31 07:14:28;;;;;;;15.40;3.20;;;;;;;15.83;100.00;100105.15;105874;1271;26535;-64
2022/07/31 07:17:02;;;;;;;9.60;3.00;;;;;;;15.85;100.00;100104.36;105672;1272;23360;-66
2022/07/31 07:19:34;;;;;;;10.50;3.30;;;;;;;15.87;100.00;100105.44;105730;1272;26854;-65
2022/07/31 07:22:05;;;;;;;8.10;3.40;;;;;;;15.88;100.00;100104.71;105654;1272;25498;-65
2022/07/31 07:24:38;;;;;;;9.70;2.40;;;;;;;15.89;100.00;100104.86;105741;1272;22629;-64
2022/07/31 07:27:10;;;;;;;7.00;2.30;;;;;;;15.91;100.00;100103.83;105744;1272;22551;-66
2022/07/31 07:29:41;;;;;;;9.20;3.20;;;;;;;15.94;100.00;100103.05;105998;1272;25665;-65
2022/07/31 07:32:15;;;;;;;8.80;2.80;;;;;;;15.97;100.00;100101.54;105767;1272;25650;-64
2022/07/31 07:34:46;;;;;;;11.80;3.30;;;;;;;16.02;100.00;100098.80;105553;1272;22679;-65
2022/07/31 07:37:18;;;;;;;6.60;2.40;;;;;;;16.07;100.00;100097.40;109433;1272;22591;-67
2022/07/31 07:39:54;;;;;;;10.60;2.40;;;;;;;16.10;100.00;100097.42;109417;1272;22393;-67
2022/07/31 07:42:26;;;;;;;12.10;2.90;;;;;;;16.15;100.00;100097.30;105400;1272;22551;-67
2022/07/31 07:45:00;;;;;;;10.20;2.70;;;;;;;16.20;100.00;100095.33;109478;1272;22513;-68
2022/07/31 07:47:32;;;;;;;13.50;2.80;;;;;;;16.24;100.00;100099.55;109450;1272;22416;-67
2022/07/31 07:50:05;;;;;;;7.00;2.70;;;;;;;16.30;99.99;100099.61;109470;1272;22417;-67
2022/07/31 07:52:41;;;;;;;9.40;2.30;;;;;;;16.35;99.99;100096.63;109444;1272;23468;-67
2022/07/31 07:55:12;;;;;;;6.50;2.40;;;;;;;16.42;100.00;100094.88;109419;1272;23218;-68
2022/07/31 07:57:45;;;;;;;8.80;2.30;;;;;;;16.48;99.79;100092.27;109402;1271;22519;-67
2022/07/31 08:00:17;;;;;;;10.50;2.00;;;;;;;16.54;99.82;100092.10;109418;1272;22412;-68
2022/07/31 08:02:50;;;;;;;5.80;2.00;;;;;;;16.60;99.55;100091.91;109441;1272;23749;-68
2022/07/31 08:05:22;;;;;;;7.00;2.00;;;;;;;16.66;99.48;100092.02;109445;1271;22399;-68
2022/07/31 08:07:54;;;;;;;8.30;2.30;;;;;;;16.72;98.94;100086.58;109457;1271;22579;-66
2022/07/31 08:10:25;;;;;;;6.10;2.10;;;;;;;16.78;98.60;100088.41;109485;1272;23094;-66
2022/07/31 08:12:57;;;;;;;7.30;2.10;;;;;;;16.85;98.47;100091.67;109494;1272;22523;-66
2022/07/31 08:15:29;;;;;;;8.00;2.20;;;;;;;16.92;97.67;100092.45;107551;1272;24167;-65
2022/07/31 08:18:01;;;;;;;8.30;2.60;;;;;;;16.97;97.75;100093.11;105879;1261;23193;-53
2022/07/31 08:20:33;;;;;;;9.60;2.60;;;;;;;17.04;97.14;100101.27;105688;1270;24268;-52
2022/07/31 08:23:05;;;;;;;9.10;2.20;;;;;;;17.07;96.96;100098.61;109587;1269;22915;-54
2022/07/31 08:25:37;;;;;;;9.30;2.70;;;;;;;17.12;96.66;100097.13;109530;1271;22372;-52
2022/07/31 08:28:08;;;;;;;5.90;2.10;;;;;;;17.16;96.60;100099.36;109537;1271;22512;-53
2022/07/31 08:30:39;;;;;;;10.00;1.80;;;;;;;17.20;95.60;100104.54;109546;1271;22952;-53
2022/07/31 08:33:11;;;;;;;8.50;1.70;;;;;;;17.24;95.48;100102.90;109522;1270;22440;-55
2022/07/31 08:35:42;;;;;;;8.60;1.30;;;;;;;17.27;95.04;100101.45;109547;1271;22522;-54
2022/07/31 08:38:14;;;;;;;6.10;1.50;;;;;;;17.30;94.67;100100.54;109532;1270;23335;-54
2022/07/31 08:40:45;;;;;;;4.70;1.20;;;;;;;17.33;94.73;100103.07;106284;1271;24387;-53
2022/07/31 08:43:17;;;;;;;9.40;2.50;;;;;;;17.37;93.88;100108.27;106089;1272;22530;-51
2022/07/31 08:45:50;;;;;;;5.80;1.50;;;;;;;17.40;94.15;100109.66;106123;1272;24203;-53
2022/07/31 08:48:24;;;;;;;10.00;1.50;;;;;;;17.43;93.89;100109.29;106080;1270;24769;-51
2022/07/31 08:50:57;;;;;;;4.40;1.30;;;;;;;17.45;94.04;100110.84;106095;1271;23118;-54
2022/07/31 08:53:31;;;;;;;5.80;1.20;;;;;;;17.48;93.44;100108.65;106236;1271;26605;-52
2022/07/31 08:56:05;;;;;;;5.10;1.30;;;;;;;17.50;92.60;100110.98;106185;1271;22675;-53
2022/07/31 08:58:37;;;;;;;7.40;1.50;;;;;;;17.51;92.41;100109.98;105932;1271;24395;-52
2022/07/31 09:01:11;;;;;;;8.60;1.40;;;;;;;17.53;92.03;100107.95;106355;1270;23121;-53
2022/07/31 09:03:43;;;;;;;5.10;1.10;;;;;;;17.57;91.39;100105.71;105984;1271;22661;-54
2022/07/31 09:06:15;;;;;;;4.60;1.00;;;;;;;17.60;90.87;100105.98;106048;1271;26640;-53
2022/07/31 09:08:46;;;;;;;7.30;1.60;;;;;;;17.65;91.21;100103.90;106165;1271;24516;-53
2022/07/31 09:11:18;;;;;;;4.00;0.90;;;;;;;17.74;91.03;100099.20;105875;1271;24276;-50
2022/07/31 09:13:57;;;;;;;5.10;1.00;;;;;;;17.81;89.42;100102.85;106013;1271;23556;-54
2022/07/31 09:16:29;;;;;;;7.50;1.10;;;;;;;17.87;88.42;100105.65;106049;1271;24271;-52
2022/07/31 09:19:04;;;;;;;6.00;1.10;;;;;;;17.93;88.58;100093.91;109470;1271;22643;-54
2022/07/31 09:21:43;;;;;;;4.00;0.90;;;;;;;18.03;88.75;100091.77;105670;1271;22531;-53
2022/07/31 09:24:26;;;;;;;4.00;1.10;;;;;;;18.16;88.52;100092.77;105701;1271;23021;-53
2022/07/31 09:27:04;;;;;;;7.10;1.00;;;;;;;18.28;87.60;100092.51;105380;1271;22547;-54
2022/07/31 09:29:41;;;;;;;5.80;1.00;;;;;;;18.38;86.76;100087.52;108838;1271;23866;-51
2022/07/31 09:32:14;;;;;;;4.60;1.10;;;;;;;18.48;87.31;100086.00;107568;1271;22535;-50
2022/07/31 09:34:48;;;;;;;6.40;1.40;;;;;;;18.60;87.11;100088.09;105768;1271;23409;-54
2022/07/31 09:37:22;;;;;;;7.00;1.20;;;;;;;18.68;86.39;100082.61;105547;1271;26068;-53
2022/07/31 09:39:56;;;;;;;8.40;1.10;;;;;;;18.71;85.32;100087.91;109527;1270;22392;-54
2022/07/31 09:42:38;;;;;;;6.30;1.30;;;;;;;18.77;85.93;100084.20;109530;1271;22567;-54
2022/07/31 09:45:21;;;;;;;9.10;1.40;;;;;;;18.82;84.95;100088.89;109516;1270;22393;-55
2022/07/31 09:50:57;;;;;;;6.00;1.10;;;;;;;18.94;85.06;100090.14;101693;1310;545286;-52
2022/07/31 09:53:39;;;;;;;10.30;1.40;;;;;;;18.98;84.98;100089.91;108876;1279;23438;-53
2022/07/31 09:56:13;;;;;;;7.90;1.30;;;;;;;19.04;85.02;100092.95;105188;1281;22765;-54
2022/07/31 09:58:45;;;;;;;7.30;1.70;;;;;;;19.08;84.44;100084.84;105698;1281;22580;-53
2022/07/31 10:01:17;;;;;;;4.60;0.80;;;;;;;19.17;83.95;100083.20;105064;1281;26579;-52
2022/07/31 10:03:50;;;;;;;4.80;0.80;;;;;;;19.27;83.61;100083.31;105088;1279;435499;-51
2022/07/31 10:06:23;;;;;;;5.50;0.80;;;;;;;19.35;82.72;100078.59;105428;1279;22604;-55
2022/07/31 10:08:56;;;;;;;4.20;0.80;;;;;;;19.46;82.04;100079.52;105483;1279;24262;-54
2022/07/31 10:11:30;;;;;;;10.30;0.90;;;;;;;19.59;81.89;100082.70;105585;1279;24305;-54
2022/07/31 10:14:05;;;;;;;4.70;0.80;;;;;;;19.69;82.00;100079.27;105378;1279;22564;-57
2022/07/31 10:16:40;;;;;;;5.80;1.00;;;;;;;19.81;81.71;100084.10;105346;1279;22714;-51
2022/07/31 10:19:14;;;;;;;7.20;1.00;;;;;;;19.95;80.66;100084.95;105645;1274;22617;-56
2022/07/31 10:22:01;;;;;;;4.90;0.70;;;;;;;20.07;79.63;100082.80;105481;1274;22717;-52
2022/07/31 10:24:36;;;;;;;5.70;0.90;;;;;;;20.22;79.32;100087.67;105631;1274;22550;-54
2022/07/31 10:27:09;;;;;;;3.70;0.90;;;;;;;20.32;78.20;100087.39;105660;1274;25474;-56
2022/07/31 10:29:43;;;;;;;5.30;0.90;;;;;;;20.41;78.23;100085.03;105699;1274;25470;-53
2022/07/31 10:32:16;;;;;;;3.30;0.80;;;;;;;20.51;78.10;100082.86;105866;1270;24315;-57
2022/07/31 10:34:49;;;;;;;6.80;0.70;;;;;;;20.60;77.51;100085.89;105753;1271;25379;-54
2022/07/31 10:37:23;;;;;;;7.60;0.90;;;;;;;20.64;77.50;100085.45;105901;1271;25538;-57
2022/07/31 10:40:01;;;;;;;3.00;0.70;;;;;;;20.71;77.56;100082.27;105750;1271;22547;-55
2022/07/31 10:42:42;;;;;;;4.20;0.80;;;;;;;20.83;77.45;100077.42;105730;1271;25352;-54
2022/07/31 10:45:15;;;;;;;4.10;0.80;;;;;;;20.92;76.80;100075.56;105892;1271;25349;-53
2022/07/31 10:47:58;;;;;;;4.10;0.90;;;;;;;20.97;76.92;100073.45;105891;1271;22718;-56
2022/07/31 10:50:32;;;;;;;6.40;0.90;;;;;;;21.05;76.19;100073.35;106045;1271;26599;-51
2022/07/31 10:53:14;;;;;;;7.90;0.80;;;;;;;21.09;75.99;100069.09;105912;1271;25582;-53
2022/07/31 10:55:47;;;;;;;4.40;0.80;;;;;;;21.15;75.71;100070.70;105938;1271;25430;-53
2022/07/31 10:58:20;;;;;;;4.10;0.80;;;;;;;21.20;75.82;100065.98;105691;1271;22770;-54
2022/07/31 11:01:04;;;;;;;4.70;0.80;;;;;;;21.23;75.97;100061.34;105796;1271;23677;-54
2022/07/31 11:03:45;;;;;;;7.50;0.70;;;;;;;21.28;75.85;100064.09;105692;1271;22534;-54
2022/07/31 11:06:20;;;;;;;5.70;0.60;;;;;;;21.32;74.54;100065.25;105874;1271;23090;-53
2022/07/31 11:08:54;;;;;;;4.30;0.70;;;;;;;21.36;74.66;100065.78;105844;1271;22592;-56
2022/07/31 11:11:36;;;;;;;6.80;1.10;;;;;;;21.42;72.21;100066.68;105681;1271;23842;-55
2022/07/31 11:14:08;;;;;;;3.50;0.70;;;;;;;21.50;72.90;100062.21;105773;1271;25310;-56
2022/07/31 11:16:51;;;;;;;5.60;0.60;;;;;;;21.60;72.23;100059.64;106108;1271;25242;-55
2022/07/31 11:19:25;;;;;;;4.30;0.60;;;;;;;21.71;71.81;100058.16;105930;1271;23184;-54
2022/07/31 11:21:57;;;;;;;5.00;0.80;;;;;;;21.82;70.91;100063.60;105871;1271;26689;-55
2022/07/31 11:24:31;;;;;;;2.90;0.60;;;;;;;21.93;71.06;100060.30;105962;1271;26485;-52
2022/07/31 11:27:04;;;;;;;5.40;0.80;;;;;;;22.01;69.68;100057.44;105960;1271;24374;-56
2022/07/31 11:29:40;;;;;;;2.70;0.70;;;;;;;22.09;70.08;100053.69;106163;1270;23094;-53
2022/07/31 11:32:19;;;;;;;2.90;0.70;;;;;;;22.16;69.10;100049.20;105911;1270;22551;-52
2022/07/31 11:34:53;;;;;;;3.70;0.80;;;;;;;22.22;68.65;100052.35;105949;1270;22556;-54
2022/07/31 11:37:29;;;;;;;5.50;0.70;;;;;;;22.29;69.39;100048.20;105909;1271;22550;-54
2022/07/31 11:40:02;;;;;;;2.10;0.60;;;;;;;22.39;68.13;100051.48;106002;1271;22692;-53